createdAt,value
2022-12-05T00:00:08.750Z,72.70
2022-12-05T00:02:39.435Z,72.80
2022-12-05T00:05:09.455Z,72.70
2022-12-05T00:07:38.512Z,72.70
2022-12-05T00:10:09.123Z,72.80
2022-12-05T00:12:39.140Z,72.90
2022-12-05T00:15:12.436Z,72.80
2022-12-05T00:17:42.775Z,72.90
2022-12-05T00:20:12.451Z,72.90
2022-12-05T00:22:41.654Z,72.80
2022-12-05T00:25:11.543Z,72.90
2022-12-05T00:27:41.357Z,72.90
2022-12-05T00:30:10.859Z,72.80
2022-12-05T00:32:39.922Z,73.00
2022-12-05T00:35:10.870Z,73.00
2022-12-05T00:37:39.868Z,73.00
2022-12-05T00:40:10.112Z,73.00
2022-12-05T00:42:39.097Z,73.00
2022-12-05T00:45:09.348Z,73.00
2022-12-05T00:47:38.626Z,73.00
2022-12-05T00:50:10.398Z,73.00
2022-12-05T00:52:39.399Z,73.10
2022-12-05T00:55:09.280Z,73.10
2022-12-05T00:57:38.060Z,73.10
2022-12-05T01:00:08.842Z,73.20
2022-12-05T01:02:38.079Z,73.20
2022-12-05T01:05:08.036Z,73.40
2022-12-05T01:07:38.355Z,73.50
2022-12-05T01:10:09.230Z,73.50
2022-12-05T01:12:38.233Z,73.80
2022-12-05T01:15:08.928Z,74.10
2022-12-05T01:17:37.990Z,74.20
2022-12-05T01:20:08.614Z,74.20
2022-12-05T01:22:38.994Z,74.40
2022-12-05T01:25:09.014Z,74.10
2022-12-05T01:27:38.009Z,74.10
2022-12-05T01:30:08.615Z,74.10
2022-12-05T01:32:37.594Z,74.00
2022-12-05T01:35:07.626Z,74.00
2022-12-05T01:37:38.001Z,74.00
2022-12-05T01:40:08.309Z,74.00
2022-12-05T01:42:37.432Z,73.90
2022-12-05T01:45:14.278Z,73.60
2022-12-05T01:47:44.007Z,73.70
2022-12-05T01:50:15.118Z,73.60
2022-12-05T01:52:45.691Z,73.50
2022-12-05T01:55:17.312Z,73.40
2022-12-05T01:57:48.548Z,73.40
2022-12-05T02:00:20.507Z,73.40
2022-12-05T02:02:53.714Z,73.50
2022-12-05T02:05:26.479Z,73.60
2022-12-05T02:07:58.571Z,73.60
2022-12-05T02:10:29.955Z,73.70
2022-12-05T02:13:06.907Z,73.70
2022-12-05T02:15:43.617Z,73.70
2022-12-05T02:18:24.702Z,73.80
2022-12-05T02:21:09.046Z,73.90
2022-12-05T02:24:09.206Z,73.90
2022-12-05T02:27:04.663Z,73.80
2022-12-05T02:30:03.366Z,73.80
2022-12-05T02:32:45.594Z,73.80
2022-12-05T02:35:22.932Z,73.70
2022-12-05T02:37:58.784Z,73.80
2022-12-05T02:40:33.816Z,73.80
2022-12-05T02:43:08.343Z,73.80
2022-12-05T02:45:41.187Z,73.80
2022-12-05T02:48:12.439Z,74.10
2022-12-05T02:50:43.899Z,74.00
2022-12-05T02:53:16.468Z,74.10
2022-12-05T02:55:47.417Z,74.20
2022-12-05T02:58:22.101Z,74.30
2022-12-05T03:00:57.382Z,74.40
2022-12-05T03:03:27.923Z,74.60
2022-12-05T03:06:03.460Z,74.50
2022-12-05T03:08:37.168Z,74.60
2022-12-05T03:11:06.930Z,74.70
2022-12-05T03:13:42.233Z,74.60
2022-12-05T03:16:19.053Z,74.70
2022-12-05T03:18:51.643Z,74.70
2022-12-05T03:21:28.500Z,74.60
2022-12-05T03:24:02.349Z,74.60
2022-12-05T03:26:40.163Z,74.40
2022-12-05T03:29:26.358Z,74.40
2022-12-05T03:32:08.259Z,74.60
2022-12-05T03:34:50.934Z,74.60
2022-12-05T03:37:26.370Z,74.50
2022-12-05T03:40:05.477Z,75.20
2022-12-05T03:42:37.838Z,74.50
2022-12-05T03:45:12.208Z,74.40
2022-12-05T03:47:49.742Z,74.40
2022-12-05T03:50:25.279Z,74.50
2022-12-05T03:53:19.099Z,74.40
2022-12-05T03:55:54.037Z,74.40
2022-12-05T03:58:28.967Z,74.30
2022-12-05T04:01:01.765Z,74.40
2022-12-05T04:03:40.430Z,74.30
2022-12-05T04:06:18.277Z,74.30
2022-12-05T04:08:51.177Z,74.30
2022-12-05T04:11:23.851Z,74.30
2022-12-05T04:13:55.570Z,74.30
2022-12-05T04:16:45.119Z,74.40
2022-12-05T04:19:20.666Z,74.40
2022-12-05T04:21:52.284Z,74.40
2022-12-05T04:24:42.563Z,74.50
2022-12-05T04:27:34.232Z,74.60
2022-12-05T04:30:06.831Z,74.60
2022-12-05T04:32:44.456Z,74.60
2022-12-05T04:35:20.508Z,74.60
2022-12-05T04:37:53.646Z,74.60
2022-12-05T04:40:27.946Z,74.60
2022-12-05T04:42:59.235Z,74.60
2022-12-05T04:45:28.613Z,74.60
2022-12-05T04:48:02.664Z,74.50
2022-12-05T04:50:36.766Z,74.60
2022-12-05T04:53:07.422Z,74.70
2022-12-05T04:55:40.512Z,74.70
2022-12-05T04:58:12.332Z,75.50
2022-12-05T05:00:50.923Z,74.70
2022-12-05T05:03:24.426Z,74.60
2022-12-05T05:05:56.937Z,74.60
2022-12-05T05:08:28.926Z,74.60
2022-12-05T05:11:12.030Z,74.50
2022-12-05T05:13:41.088Z,74.70
2022-12-05T05:16:18.021Z,74.50
2022-12-05T05:18:47.339Z,74.60
2022-12-05T05:21:20.908Z,74.60
2022-12-05T05:23:50.670Z,74.70
2022-12-05T05:26:20.283Z,74.70
2022-12-05T05:28:49.938Z,74.70
2022-12-05T05:31:20.834Z,74.80
2022-12-05T05:33:50.482Z,74.90
2022-12-05T05:36:22.716Z,74.80
2022-12-05T05:38:54.131Z,74.90
2022-12-05T05:41:26.014Z,74.90
2022-12-05T05:43:56.316Z,74.90
2022-12-05T05:46:28.074Z,75.00
2022-12-05T05:48:57.685Z,75.20
2022-12-05T05:51:30.218Z,75.20
2022-12-05T05:54:00.209Z,75.30
2022-12-05T05:56:29.793Z,75.40
2022-12-05T05:59:01.713Z,75.30
2022-12-05T06:01:31.256Z,75.40
2022-12-05T06:04:00.299Z,75.30
2022-12-05T06:06:30.666Z,75.30
2022-12-05T06:08:59.610Z,75.30
2022-12-05T06:11:29.917Z,75.30
2022-12-05T06:14:02.077Z,75.50
2022-12-05T06:16:32.519Z,75.50
2022-12-05T06:19:01.654Z,75.50
2022-12-05T06:21:31.846Z,75.60
2022-12-05T06:24:00.701Z,75.60
2022-12-05T06:26:29.590Z,75.60
2022-12-05T06:28:58.896Z,75.60
2022-12-05T06:31:31.590Z,75.80
2022-12-05T06:34:01.869Z,75.80
2022-12-05T06:36:32.715Z,75.90
2022-12-05T06:39:01.990Z,75.90
2022-12-05T06:41:31.186Z,76.60
2022-12-05T06:44:02.589Z,75.70
2022-12-05T06:46:31.755Z,75.70
2022-12-05T06:49:01.048Z,75.70
2022-12-05T06:51:30.157Z,75.60
2022-12-05T06:54:00.503Z,75.40
2022-12-05T06:56:29.743Z,75.20
2022-12-05T06:58:58.936Z,75.00
2022-12-05T07:01:39.163Z,74.80
2022-12-05T07:04:12.238Z,74.80
2022-12-05T07:06:46.163Z,74.70
2022-12-05T07:09:21.418Z,74.40
2022-12-05T07:11:51.984Z,74.30
2022-12-05T07:17:10.721Z,74.20
2022-12-05T07:19:39.717Z,74.10
2022-12-05T07:22:13.904Z,74.20
2022-12-05T07:24:46.457Z,74.10
2022-12-05T07:27:19.479Z,74.20
2022-12-05T07:29:50.979Z,74.20
2022-12-05T07:32:20.003Z,74.20
2022-12-05T07:34:54.722Z,74.50
2022-12-05T07:37:24.721Z,74.10
2022-12-05T07:39:56.861Z,74.20
2022-12-05T07:42:26.566Z,74.10
2022-12-05T07:44:55.938Z,74.10
2022-12-05T07:47:25.948Z,74.00
2022-12-05T07:49:55.493Z,74.00
2022-12-05T07:52:24.676Z,74.00
2022-12-05T07:54:55.068Z,74.00
2022-12-05T07:57:24.050Z,73.90
2022-12-05T07:59:53.666Z,73.80
2022-12-05T08:02:23.387Z,74.60
2022-12-05T08:04:52.775Z,74.00
2022-12-05T08:07:22.030Z,73.90
2022-12-05T08:09:52.289Z,73.90
2022-12-05T08:12:23.013Z,73.90
2022-12-05T08:14:52.198Z,73.90
2022-12-05T08:17:21.371Z,73.70
2022-12-05T08:19:50.696Z,73.90
2022-12-05T08:22:19.906Z,73.80
2022-12-05T08:24:56.172Z,73.90
2022-12-05T08:27:26.904Z,73.70
2022-12-05T08:29:56.435Z,73.60
2022-12-05T08:32:27.288Z,73.40
2022-12-05T08:34:56.441Z,73.60
2022-12-05T08:37:25.424Z,73.60
2022-12-05T08:39:54.425Z,73.60
2022-12-05T08:42:23.377Z,73.60
2022-12-05T08:44:53.750Z,73.60
2022-12-05T08:47:22.803Z,73.70
2022-12-05T08:49:52.353Z,73.90
2022-12-05T08:52:21.874Z,74.00
2022-12-05T08:54:50.893Z,73.90
2022-12-05T08:57:20.036Z,73.70
2022-12-05T08:59:49.055Z,73.70
2022-12-05T09:02:19.562Z,73.70
2022-12-05T09:04:53.989Z,73.80
2022-12-05T09:07:23.373Z,73.90
2022-12-05T09:09:52.397Z,73.80
2022-12-05T09:12:21.433Z,73.70
2022-12-05T09:14:50.669Z,73.60
2022-12-05T09:17:21.111Z,73.60
2022-12-05T09:19:52.657Z,73.40
2022-12-05T09:22:24.209Z,73.30
2022-12-05T09:24:53.269Z,73.40
2022-12-05T09:27:22.270Z,73.40
2022-12-05T09:29:51.550Z,73.40
2022-12-05T09:32:22.149Z,73.40
2022-12-05T09:34:51.290Z,73.30
2022-12-05T09:37:38.006Z,73.10
2022-12-05T09:40:15.771Z,73.20
2022-12-05T09:42:55.153Z,73.40
2022-12-05T09:45:27.683Z,73.50
2022-12-05T09:48:01.996Z,73.40
2022-12-05T09:50:34.383Z,73.40
2022-12-05T09:53:12.145Z,73.70
2022-12-05T09:55:47.285Z,73.40
2022-12-05T09:58:28.465Z,73.40
2022-12-05T10:01:04.246Z,73.40
2022-12-05T10:03:44.267Z,73.40
2022-12-05T10:06:19.606Z,73.60
2022-12-05T10:09:06.678Z,73.80
2022-12-05T10:11:40.304Z,74.10
2022-12-05T10:14:18.407Z,74.10
2022-12-05T10:16:53.874Z,74.10
2022-12-05T10:19:29.747Z,73.90
2022-12-05T10:22:03.137Z,73.80
2022-12-05T10:24:38.433Z,73.80
2022-12-05T10:27:10.847Z,73.90
2022-12-05T10:29:46.413Z,74.10
2022-12-05T10:32:20.888Z,74.00
2022-12-05T10:34:52.131Z,74.00
2022-12-05T10:37:22.936Z,74.10
2022-12-05T10:39:55.520Z,74.00
2022-12-05T10:42:29.908Z,74.10
2022-12-05T10:45:05.274Z,74.00
2022-12-05T10:47:36.050Z,73.90
2022-12-05T10:50:09.686Z,74.00
2022-12-05T10:52:39.054Z,74.00
2022-12-05T10:55:09.231Z,74.00
2022-12-05T10:57:39.314Z,73.90
2022-12-05T11:00:17.187Z,73.40
2022-12-05T11:02:51.715Z,73.70
2022-12-05T11:05:36.500Z,73.90
2022-12-05T11:08:07.783Z,73.80
2022-12-05T11:10:41.703Z,73.50
2022-12-05T11:13:17.475Z,73.30
2022-12-05T11:15:53.811Z,73.30
2022-12-05T11:18:30.381Z,73.10
2022-12-05T11:21:11.577Z,73.10
2022-12-05T11:23:40.778Z,73.40
2022-12-05T11:26:20.169Z,73.40
2022-12-05T11:28:49.374Z,73.60
2022-12-05T11:31:27.426Z,73.70
2022-12-05T11:34:12.973Z,73.80
2022-12-05T11:36:48.166Z,73.70
2022-12-05T11:39:17.654Z,73.30
2022-12-05T11:42:02.933Z,73.30
2022-12-05T11:44:48.189Z,73.30
2022-12-05T11:47:27.645Z,73.60
2022-12-05T11:50:17.361Z,73.30
2022-12-05T11:52:58.548Z,72.80
2022-12-05T11:55:33.160Z,73.20
2022-12-05T11:58:38.435Z,72.80
2022-12-05T12:01:18.351Z,72.30
2022-12-05T12:04:19.029Z,72.60
2022-12-05T12:07:00.868Z,72.60
2022-12-05T12:09:43.894Z,72.40
2022-12-05T12:12:20.798Z,72.40
2022-12-05T12:15:02.401Z,72.60
2022-12-05T12:17:49.799Z,72.40
2022-12-05T12:20:34.634Z,72.30
2022-12-05T12:23:31.026Z,72.30
2022-12-05T12:26:08.881Z,71.80
2022-12-05T12:28:45.605Z,71.60
2022-12-05T12:31:42.189Z,71.70
2022-12-05T12:34:30.307Z,72.10
2022-12-05T12:37:04.097Z,72.10
2022-12-05T12:39:45.146Z,71.80
2022-12-05T12:42:25.678Z,71.50
2022-12-05T12:45:23.631Z,71.40
2022-12-05T12:48:10.297Z,71.50
2022-12-05T12:50:44.064Z,71.50
2022-12-05T12:53:44.799Z,71.40
2022-12-05T12:56:26.519Z,71.50
2022-12-05T12:59:07.786Z,71.70
2022-12-05T13:01:43.815Z,71.80
2022-12-05T13:04:17.080Z,71.60
2022-12-05T13:06:51.154Z,71.70
2022-12-05T13:09:24.978Z,72.00
2022-12-05T13:11:55.944Z,72.30
2022-12-05T13:14:27.600Z,72.50
2022-12-05T13:16:57.943Z,72.40
2022-12-05T13:19:30.913Z,72.20
2022-12-05T13:22:00.847Z,72.20
2022-12-05T13:24:30.388Z,72.20
2022-12-05T13:27:02.270Z,72.40
2022-12-05T13:29:37.506Z,72.60
2022-12-05T13:32:08.858Z,72.50
2022-12-05T13:34:50.121Z,72.50
2022-12-05T13:37:40.195Z,72.50
2022-12-05T13:40:46.750Z,72.60
2022-12-05T13:43:18.764Z,72.70
2022-12-05T13:46:02.906Z,72.50
2022-12-05T13:48:35.020Z,72.00
2022-12-05T13:51:09.578Z,71.90
2022-12-05T13:53:41.851Z,71.80
2022-12-05T13:56:27.323Z,71.80
2022-12-05T13:58:57.844Z,71.80
2022-12-05T14:01:55.976Z,71.90
2022-12-05T14:04:50.735Z,71.70
2022-12-05T14:07:43.232Z,72.00
2022-12-05T14:10:16.575Z,71.80
2022-12-05T14:12:59.143Z,72.00
2022-12-05T14:15:34.776Z,72.00
2022-12-05T14:18:15.436Z,72.10
2022-12-05T14:20:50.636Z,71.80
2022-12-05T14:23:51.679Z,71.90
2022-12-05T14:26:36.218Z,72.00
2022-12-05T14:29:31.831Z,72.00
2022-12-05T14:32:10.543Z,72.00
2022-12-05T14:34:53.610Z,72.00
2022-12-05T14:37:29.304Z,72.00
2022-12-05T14:40:00.637Z,72.10
2022-12-05T14:42:43.130Z,72.20
2022-12-05T14:45:34.764Z,72.10
2022-12-05T14:48:07.577Z,72.00
2022-12-05T14:50:46.495Z,72.00
2022-12-05T14:53:33.169Z,72.00
2022-12-05T14:56:16.402Z,72.10
2022-12-05T14:58:55.842Z,72.10
2022-12-05T15:01:28.505Z,72.10
2022-12-05T15:04:19.136Z,72.30
2022-12-05T15:06:53.635Z,72.40
2022-12-05T15:09:58.642Z,72.40
2022-12-05T15:12:31.119Z,72.40
2022-12-05T15:15:11.029Z,72.40
2022-12-05T15:17:45.373Z,72.60
2022-12-05T15:20:22.919Z,72.70
2022-12-05T15:22:54.067Z,72.60
2022-12-05T15:25:26.098Z,72.30
2022-12-05T15:28:01.419Z,72.50
2022-12-05T15:30:32.453Z,72.50
2022-12-05T15:33:02.760Z,72.40
2022-12-05T15:35:34.856Z,72.50
2022-12-05T15:38:22.423Z,72.40
2022-12-05T15:40:54.748Z,72.40
2022-12-05T15:43:32.046Z,72.40
2022-12-05T15:46:23.725Z,72.40
2022-12-05T15:48:53.894Z,72.60
2022-12-05T15:51:26.954Z,72.60
2022-12-05T15:54:05.043Z,72.70
2022-12-05T15:56:41.430Z,72.70
2022-12-05T15:59:17.238Z,72.70
2022-12-05T16:01:51.509Z,72.70
2022-12-05T16:04:29.658Z,72.70
2022-12-05T16:07:02.336Z,72.60
2022-12-05T16:09:34.839Z,72.60
2022-12-05T16:12:06.835Z,72.60
2022-12-05T16:17:31.258Z,72.60
2022-12-05T16:20:13.718Z,72.70
2022-12-05T16:22:45.290Z,72.70
2022-12-05T16:25:17.960Z,72.80
2022-12-05T16:27:57.814Z,72.70
2022-12-05T16:30:27.554Z,73.00
2022-12-05T16:33:03.577Z,72.80
2022-12-05T16:35:38.448Z,72.80
2022-12-05T16:38:13.082Z,72.70
2022-12-05T16:40:54.102Z,72.80
2022-12-05T16:43:29.106Z,72.90
2022-12-05T16:46:00.772Z,72.90
2022-12-05T16:48:31.086Z,72.80
2022-12-05T16:51:21.324Z,72.80
2022-12-05T16:53:52.096Z,72.80
2022-12-05T16:56:25.343Z,72.80
2022-12-05T16:58:54.859Z,73.00
2022-12-05T17:01:25.661Z,72.90
2022-12-05T17:03:56.204Z,72.90
2022-12-05T17:06:27.518Z,73.70
2022-12-05T17:08:56.890Z,73.00
2022-12-05T17:11:29.182Z,73.00
2022-12-05T17:14:00.139Z,73.10
2022-12-05T17:16:29.442Z,73.10
2022-12-05T17:18:58.539Z,72.80
2022-12-05T17:21:32.418Z,72.80
2022-12-05T17:24:01.996Z,72.70
2022-12-05T17:26:33.304Z,72.70
2022-12-05T17:29:02.683Z,72.70
2022-12-05T17:31:32.091Z,73.00
2022-12-05T17:34:01.204Z,73.10
2022-12-05T17:36:30.367Z,73.10
2022-12-05T17:38:59.473Z,73.90
2022-12-05T17:41:28.447Z,73.20
2022-12-05T17:43:59.287Z,73.30
2022-12-05T17:46:28.490Z,73.20
2022-12-05T17:48:58.089Z,73.10
2022-12-05T17:51:27.882Z,73.00
2022-12-05T17:53:56.912Z,73.10
2022-12-05T17:56:26.099Z,72.90
2022-12-05T17:58:55.077Z,73.00
2022-12-05T18:01:25.602Z,73.00
2022-12-05T18:03:54.852Z,73.00
2022-12-05T18:06:26.029Z,73.10
2022-12-05T18:08:55.388Z,73.30
2022-12-05T18:11:24.442Z,73.20
2022-12-05T18:13:53.544Z,73.30
2022-12-05T18:16:22.747Z,73.40
2022-12-05T18:18:53.221Z,73.30
2022-12-05T18:21:22.574Z,74.20
2022-12-05T18:23:52.933Z,73.30
2022-12-05T18:26:21.913Z,73.30
2022-12-05T18:28:51.579Z,73.40
2022-12-05T18:31:20.705Z,73.40
2022-12-05T18:33:49.897Z,73.50
2022-12-05T18:36:22.011Z,73.60
2022-12-05T18:38:52.993Z,73.60
2022-12-05T18:41:23.977Z,73.60
2022-12-05T18:43:53.063Z,73.60
2022-12-05T18:46:21.941Z,73.70
2022-12-05T18:48:51.034Z,73.70
2022-12-05T18:51:22.926Z,73.70
2022-12-05T18:53:54.775Z,73.70
2022-12-05T18:56:26.461Z,73.70
2022-12-05T18:58:57.216Z,73.90
2022-12-05T19:01:27.300Z,74.00
2022-12-05T19:03:58.116Z,74.00
2022-12-05T19:06:30.943Z,74.00
2022-12-05T19:09:02.394Z,74.10
2022-12-05T19:11:31.654Z,74.10
2022-12-05T19:14:02.581Z,73.90
2022-12-05T19:16:33.057Z,73.90
2022-12-05T19:19:04.742Z,73.90
2022-12-05T19:21:36.568Z,74.00
2022-12-05T19:24:08.713Z,73.90
2022-12-05T19:26:38.173Z,73.90
2022-12-05T19:29:07.378Z,73.80
2022-12-05T19:31:36.847Z,73.90
2022-12-05T19:34:07.627Z,73.70
2022-12-05T19:36:40.220Z,73.60
2022-12-05T19:39:11.060Z,73.70
2022-12-05T19:41:40.123Z,73.70
2022-12-05T19:44:09.645Z,73.70
2022-12-05T19:46:38.845Z,73.70
2022-12-05T19:49:17.368Z,73.80
2022-12-05T19:51:48.713Z,73.90
2022-12-05T19:54:19.531Z,73.90
2022-12-05T19:56:48.610Z,74.00
2022-12-05T19:59:17.780Z,74.00
2022-12-05T20:01:46.980Z,74.20
2022-12-05T20:04:17.352Z,74.20
2022-12-05T20:06:49.443Z,74.20
2022-12-05T20:09:21.578Z,74.30
2022-12-05T20:11:55.030Z,74.40
2022-12-05T20:14:25.885Z,74.40
2022-12-05T20:16:56.096Z,74.40
2022-12-05T20:19:25.450Z,74.40
2022-12-05T20:21:56.103Z,74.30
2022-12-05T20:24:25.651Z,74.40
2022-12-05T20:26:54.646Z,74.30
2022-12-05T20:29:23.644Z,74.20
2022-12-05T20:31:56.599Z,74.20
2022-12-05T20:34:25.860Z,74.20
2022-12-05T20:36:56.182Z,74.10
2022-12-05T20:39:27.450Z,74.10
2022-12-05T20:41:56.852Z,74.10
2022-12-05T20:44:26.723Z,74.10
2022-12-05T20:46:56.077Z,74.10
2022-12-05T20:49:25.270Z,74.10
2022-12-05T20:51:55.568Z,74.10
2022-12-05T20:54:24.486Z,74.10
2022-12-05T20:56:53.865Z,74.20
2022-12-05T20:59:22.797Z,74.20
2022-12-05T21:01:52.196Z,74.30
2022-12-05T21:04:22.299Z,74.30
2022-12-05T21:06:51.303Z,74.20
2022-12-05T21:09:28.527Z,74.10
2022-12-05T21:11:57.779Z,74.90
2022-12-05T21:14:26.830Z,74.10
2022-12-05T21:16:55.847Z,74.10
2022-12-05T21:19:25.229Z,74.00
2022-12-05T21:21:55.000Z,74.00
2022-12-05T21:24:25.573Z,74.00
2022-12-05T21:26:54.463Z,73.90
2022-12-05T21:29:23.334Z,74.00
2022-12-05T21:31:52.711Z,74.00
2022-12-05T21:34:22.156Z,73.90
2022-12-05T21:36:51.150Z,73.90
2022-12-05T21:39:20.815Z,73.90
2022-12-05T21:41:51.162Z,73.80
2022-12-05T21:44:21.169Z,73.90
2022-12-05T21:46:50.583Z,73.90
2022-12-05T21:49:19.502Z,74.10
2022-12-05T21:51:48.450Z,74.10
2022-12-05T21:54:17.381Z,74.10
2022-12-05T21:56:46.295Z,74.00
2022-12-05T21:59:16.698Z,74.20
2022-12-05T22:01:46.289Z,74.30
2022-12-05T22:04:15.197Z,74.30
2022-12-05T22:06:44.040Z,74.30
2022-12-05T22:09:12.914Z,74.20
2022-12-05T22:11:41.920Z,75.00
2022-12-05T22:14:11.008Z,74.20
2022-12-05T22:16:41.285Z,74.10
2022-12-05T22:19:10.533Z,74.10
2022-12-05T22:21:39.361Z,74.00
2022-12-05T22:24:08.845Z,73.90
2022-12-05T22:26:37.654Z,74.00
2022-12-05T22:29:06.564Z,73.90
2022-12-05T22:31:35.592Z,73.90
2022-12-05T22:34:05.962Z,74.10
2022-12-05T22:36:34.777Z,74.10
2022-12-05T22:39:04.435Z,74.20
2022-12-05T22:41:33.507Z,74.20
2022-12-05T22:44:02.416Z,74.10
2022-12-05T22:46:31.638Z,73.90
2022-12-05T22:49:01.212Z,73.90
2022-12-05T22:51:32.475Z,73.90
2022-12-05T22:54:01.228Z,73.90
2022-12-05T22:56:30.383Z,74.00
2022-12-05T22:59:01.338Z,73.90
2022-12-05T23:01:32.701Z,73.90
2022-12-05T23:04:04.808Z,73.80
2022-12-05T23:06:36.397Z,73.80
2022-12-05T23:09:06.985Z,73.70
2022-12-05T23:11:35.893Z,73.70
2022-12-05T23:14:05.994Z,73.80
2022-12-05T23:16:35.402Z,73.80
2022-12-05T23:19:08.232Z,73.70
2022-12-05T23:21:40.414Z,73.90
2022-12-05T23:24:12.022Z,73.80
2022-12-05T23:26:42.849Z,73.60
2022-12-05T23:29:13.098Z,73.50
2022-12-05T23:31:42.756Z,73.50
2022-12-05T23:34:12.463Z,73.50
2022-12-05T23:36:42.947Z,73.50
2022-12-05T23:39:11.806Z,73.40
2022-12-05T23:41:40.657Z,73.20
2022-12-05T23:44:09.507Z,72.90
2022-12-05T23:46:38.519Z,73.00
2022-12-05T23:49:07.661Z,73.00
2022-12-05T23:51:39.962Z,73.10
2022-12-05T23:54:12.117Z,73.30
2022-12-05T23:56:41.065Z,73.40
2022-12-05T23:59:10.680Z,73.40
